Time;durP1;ratioP1;P1;durP2;ratioP2;P2;SDS_P1;SDS_P2;PMS_P1;PMS_P2;Temp;Humidity;BMP_temperature;BMP_pressure;BME280_temperature;BME280_humidity;BME280_pressure;Samples;Min_cycle;Max_cycle;Signal;HPM_P1;HPM_P2
2021/01/04 00:01:36;;;;;;;55.63;22.23;;;2.10;99.90;;;;;;4300677;28;658547;-70
2021/01/04 00:04:45;;;;;;;63.53;25.83;;;2.10;99.90;;;;;;4309389;28;657851;-67
2021/01/04 00:08:09;;;;;;;68.77;26.13;;;2.00;99.90;;;;;;4322777;28;657819;-70
2021/01/04 00:11:31;;;;;;;71.73;26.23;;;2.00;99.90;;;;;;4312424;28;658527;-70
2021/01/04 00:14:43;;;;;;;76.30;28.53;;;2.00;99.90;;;;;;4303070;28;657687;-67
2021/01/04 00:17:58;;;;;;;71.57;26.83;;;2.10;99.90;;;;;;4303980;28;658074;-70
2021/01/04 00:20:48;;;;;;;64.10;24.90;;;2.00;99.90;;;;;;4234089;29;658698;-70
2021/01/04 00:23:41;;;;;;;63.30;24.77;;;2.00;99.90;;;;;;4247061;29;658195;-70
2021/01/04 00:26:29;;;;;;;67.13;26.57;;;2.00;99.90;;;;;;4256741;29;658038;-70
2021/01/04 00:29:17;;;;;;;71.37;26.20;;;2.00;99.90;;;;;;4256421;29;657959;-70
2021/01/04 00:32:08;;;;;;;60.40;24.67;;;2.00;99.90;;;;;;4255523;29;657844;-69
2021/01/04 00:34:55;;;;;;;71.50;26.13;;;1.90;99.90;;;;;;4267158;29;657733;-70
2021/01/04 00:38:26;;;;;;;58.10;23.55;;;1.80;99.90;;;;;;4319345;29;658540;-70
2021/01/04 00:41:21;;;;;;;51.67;22.50;;;1.80;99.90;;;;;;4300536;29;657501;-67
2021/01/04 00:44:10;;;;;;;38.87;18.83;;;1.80;99.90;;;;;;4299706;29;657383;-70
2021/01/04 00:47:00;;;;;;;47.57;18.80;;;1.80;99.90;;;;;;4305739;28;658918;-70
2021/01/04 00:49:49;;;;;;;48.57;19.03;;;1.80;99.90;;;;;;4304657;29;657493;-70
2021/01/04 00:52:40;;;;;;;46.57;20.00;;;1.80;99.90;;;;;;4301892;29;658517;-70
2021/01/04 00:55:35;;;;;;;46.47;19.27;;;1.70;99.90;;;;;;4305392;29;658136;-70
2021/01/04 00:58:55;;;;;;;38.03;18.80;;;1.70;99.90;;;;;;4305692;29;657754;-61
2021/01/04 01:02:14;;;;;;;42.72;18.95;;;1.70;99.90;;;;;;4385889;28;657999;-61
2021/01/04 01:05:07;;;;;;;45.67;18.90;;;1.70;99.90;;;;;;4367118;28;659091;-61
2021/01/04 01:08:14;;;;;;;40.07;17.03;;;1.70;99.90;;;;;;4386764;28;657197;-61
2021/01/04 01:11:03;;;;;;;40.83;17.50;;;1.70;99.90;;;;;;4382004;28;657971;-62
2021/01/04 01:13:58;;;;;;;41.57;18.10;;;1.70;99.90;;;;;;4391705;28;659290;-61
2021/01/04 01:17:05;;;;;;;38.73;18.20;;;1.80;99.90;;;;;;4368657;28;658348;-61
2021/01/04 01:19:53;;;;;;;38.63;17.70;;;1.80;99.90;;;;;;4392490;28;657464;-61
2021/01/04 01:22:41;;;;;;;39.53;18.30;;;1.80;99.90;;;;;;4383395;28;658564;-62
2021/01/04 01:25:30;;;;;;;45.13;18.20;;;1.80;99.90;;;;;;4406397;28;658162;-63
2021/01/04 01:28:50;;;;;;;45.77;19.87;;;1.80;99.90;;;;;;4408571;28;657812;-61
2021/01/04 01:32:16;;;;;;;49.97;22.50;;;1.80;99.90;;;;;;4386158;28;657741;-61
2021/01/04 01:35:19;;;;;;;57.30;24.63;;;1.90;99.90;;;;;;4405607;28;657500;-62
2021/01/04 01:38:53;;;;;;;42.20;19.40;;;1.90;99.90;;;;;;4361962;28;657789;-61
2021/01/04 01:42:06;;;;;;;89.67;34.63;;;2.00;99.90;;;;;;4364114;28;658875;-61
2021/01/04 01:44:59;;;;;;;103.73;38.20;;;2.10;99.90;;;;;;4381452;28;657906;-62
2021/01/04 01:47:51;;;;;;;113.97;45.47;;;2.00;99.90;;;;;;4390677;28;660158;-62
2021/01/04 01:50:41;;;;;;;127.10;50.80;;;2.00;99.90;;;;;;4386611;28;659258;-61
2021/01/04 01:53:33;;;;;;;123.80;49.30;;;2.00;99.90;;;;;;4388656;28;658751;-61
2021/01/04 01:56:24;;;;;;;134.93;50.43;;;1.90;99.90;;;;;;4394109;28;658490;-62
2021/01/04 01:59:31;;;;;;;156.17;58.23;;;1.90;99.90;;;;;;4390100;28;660432;-61
2021/01/04 02:02:21;;;;;;;177.00;64.18;;;1.90;99.90;;;;;;4383361;28;658622;-62
2021/01/04 02:05:11;;;;;;;159.30;60.23;;;1.90;99.90;;;;;;4388624;28;658696;-61
2021/01/04 02:08:00;;;;;;;154.33;61.50;;;1.90;99.90;;;;;;4386447;28;658458;-61
2021/01/04 02:10:49;;;;;;;152.10;58.50;;;1.80;99.90;;;;;;4378893;28;659317;-62
2021/01/04 02:13:52;;;;;;;128.63;52.63;;;1.80;99.90;;;;;;4378525;28;660298;-61
2021/01/04 02:16:55;;;;;;;115.43;45.77;;;1.80;99.90;;;;;;4382013;28;659135;-63
2021/01/04 02:20:04;;;;;;;101.28;40.90;;;1.80;99.90;;;;;;4386671;28;658996;-61
2021/01/04 02:23:08;;;;;;;86.87;37.80;;;1.80;99.90;;;;;;4389247;28;658756;-61
2021/01/04 02:25:58;;;;;;;90.23;36.07;;;1.90;99.90;;;;;;4375408;28;658323;-62
2021/01/04 02:28:56;;;;;;;93.50;38.40;;;1.90;99.90;;;;;;4379479;28;659666;-61
2021/01/04 02:31:46;;;;;;;85.47;36.37;;;1.90;99.90;;;;;;4371385;28;658645;-63
2021/01/04 02:34:35;;;;;;;86.43;36.67;;;1.90;99.90;;;;;;4392470;28;657553;-63
2021/01/04 02:37:22;;;;;;;95.23;36.53;;;1.90;99.90;;;;;;4402628;28;658874;-61
2021/01/04 02:40:11;;;;;;;87.53;35.23;;;1.90;99.90;;;;;;4397892;28;657880;-63
2021/01/04 02:42:58;;;;;;;87.60;36.67;;;2.00;99.90;;;;;;4410198;28;657137;-61
2021/01/04 02:45:45;;;;;;;92.77;37.93;;;2.00;99.90;;;;;;4393492;28;658158;-61
2021/01/04 02:48:37;;;;;;;87.60;36.23;;;1.90;99.90;;;;;;4401783;28;657707;-61
2021/01/04 02:51:26;;;;;;;70.73;31.13;;;1.90;99.90;;;;;;4374957;28;657700;-63
2021/01/04 02:54:22;;;;;;;70.07;30.37;;;1.90;99.90;;;;;;4415315;28;657390;-61
2021/01/04 02:57:13;;;;;;;71.00;29.55;;;1.90;99.90;;;;;;4372478;28;658675;-63
2021/01/04 03:00:01;;;;;;;73.13;30.63;;;1.90;99.90;;;;;;4389829;28;657669;-61
2021/01/04 03:02:50;;;;;;;74.73;32.17;;;1.80;99.90;;;;;;4417357;28;657803;-61
2021/01/04 03:05:37;;;;;;;75.20;32.30;;;1.80;99.90;;;;;;4388006;28;659318;-61
2021/01/04 03:08:24;;;;;;;75.20;31.27;;;1.80;99.90;;;;;;4400939;28;657448;-62
2021/01/04 03:11:13;;;;;;;72.32;31.73;;;1.70;99.90;;;;;;4415417;28;657864;-62
2021/01/04 03:14:02;;;;;;;77.03;32.83;;;1.70;99.90;;;;;;4392879;28;657293;-62
2021/01/04 03:16:56;;;;;;;71.17;32.03;;;1.70;99.90;;;;;;4383591;28;657753;-62
2021/01/04 03:19:44;;;;;;;78.43;35.03;;;1.60;99.90;;;;;;4384052;28;658225;-61
2021/01/04 03:22:31;;;;;;;78.77;34.67;;;1.50;99.90;;;;;;4383985;28;658306;-61
2021/01/04 03:25:20;;;;;;;74.67;33.80;;;1.50;99.90;;;;;;4412658;28;659405;-62
2021/01/04 03:28:17;;;;;;;64.33;28.50;;;1.50;99.90;;;;;;4391939;28;658029;-62
2021/01/04 03:31:05;;;;;;;60.97;25.27;;;1.40;99.90;;;;;;4365981;28;657869;-62
2021/01/04 03:33:53;;;;;;;61.43;25.73;;;1.30;99.90;;;;;;4416058;28;658477;-62
2021/01/04 03:36:40;;;;;;;60.53;26.07;;;1.40;99.90;;;;;;4379496;28;657471;-62
2021/01/04 03:39:29;;;;;;;58.30;24.57;;;1.40;99.90;;;;;;4399723;28;658483;-61
2021/01/04 03:42:15;;;;;;;49.83;22.47;;;1.30;99.90;;;;;;4392985;28;659287;-61
2021/01/04 03:45:04;;;;;;;51.57;23.90;;;1.30;99.90;;;;;;4408781;28;657348;-61
2021/01/04 03:47:51;;;;;;;53.67;23.37;;;1.40;99.90;;;;;;4394540;28;658673;-62
2021/01/04 03:50:39;;;;;;;60.60;24.40;;;1.20;99.90;;;;;;4400534;28;657672;-62
2021/01/04 03:53:26;;;;;;;69.87;27.53;;;1.20;99.90;;;;;;4396736;28;658097;-61
2021/01/04 03:56:15;;;;;;;97.13;40.13;;;1.20;99.90;;;;;;4409520;28;658422;-62
2021/01/04 03:59:02;;;;;;;56.37;24.50;;;1.20;99.90;;;;;;4385174;28;658895;-61
2021/01/04 04:01:49;;;;;;;65.57;26.77;;;1.20;99.90;;;;;;4391771;28;657935;-63
2021/01/04 04:04:36;;;;;;;55.17;23.63;;;1.30;99.90;;;;;;4414649;28;659104;-62
2021/01/04 04:07:24;;;;;;;57.03;24.13;;;1.30;99.90;;;;;;4410814;28;657603;-62
2021/01/04 04:10:12;;;;;;;62.23;25.83;;;1.40;99.90;;;;;;4384421;28;658935;-62
2021/01/04 04:12:59;;;;;;;61.57;25.90;;;1.40;99.90;;;;;;4396384;28;657464;-62
2021/01/04 04:15:46;;;;;;;55.83;22.57;;;1.40;99.90;;;;;;4419140;28;659466;-62
2021/01/04 04:18:33;;;;;;;52.23;21.83;;;1.40;99.90;;;;;;4414795;28;657741;-61
2021/01/04 04:21:20;;;;;;;52.23;21.97;;;1.50;99.90;;;;;;4384894;28;658450;-62
2021/01/04 04:24:08;;;;;;;63.30;25.03;;;1.50;99.90;;;;;;4415079;28;658125;-63
2021/01/04 04:26:55;;;;;;;50.43;20.50;;;1.60;99.90;;;;;;4392083;28;659539;-62
2021/01/04 04:29:43;;;;;;;58.63;22.03;;;1.60;99.90;;;;;;4405744;28;658741;-62
2021/01/04 04:32:30;;;;;;;59.90;23.67;;;1.70;99.90;;;;;;4394110;28;657611;-62
2021/01/04 04:35:17;;;;;;;51.43;21.30;;;1.70;99.90;;;;;;4408271;28;659380;-61
2021/01/04 04:38:04;;;;;;;47.67;19.07;;;1.70;99.90;;;;;;4388084;28;657554;-63
2021/01/04 04:40:52;;;;;;;39.97;18.13;;;1.70;99.90;;;;;;4409091;28;659046;-62
2021/01/04 04:43:42;;;;;;;46.97;20.13;;;1.70;99.90;;;;;;4388359;28;657708;-62
2021/01/04 04:46:37;;;;;;;44.40;19.40;;;1.70;99.90;;;;;;4391135;28;657500;-62
2021/01/04 04:49:47;;;;;;;40.67;18.23;;;1.70;99.90;;;;;;4394910;28;657202;-63
2021/01/04 04:53:02;;;;;;;44.67;18.57;;;1.60;99.90;;;;;;4394770;28;657827;-62
2021/01/04 04:56:07;;;;;;;41.97;18.23;;;1.50;99.90;;;;;;4309897;28;657650;-61
2021/01/04 04:58:56;;;;;;;45.33;20.20;;;1.70;99.90;;;;;;4304395;28;657440;-62
2021/01/04 05:01:46;;;;;;;43.77;19.40;;;1.70;99.90;;;;;;4352839;28;658796;-62
2021/01/04 05:04:53;;;;;;;37.20;17.20;;;1.60;99.90;;;;;;4318499;28;657941;-63
2021/01/04 05:07:46;;;;;;;43.35;19.33;;;1.50;99.90;;;;;;4300424;28;659298;-62
2021/01/04 05:10:37;;;;;;;41.57;17.93;;;1.60;99.90;;;;;;4331635;28;657809;-62
2021/01/04 05:13:28;;;;;;;43.42;18.27;;;1.70;99.90;;;;;;4313655;28;657972;-63
2021/01/04 05:16:16;;;;;;;44.17;18.03;;;1.60;99.90;;;;;;4341828;28;657160;-63
2021/01/04 05:19:41;;;;;;;37.47;17.23;;;1.50;99.90;;;;;;4353385;28;657614;-62
2021/01/04 05:22:51;;;;;;;37.83;17.50;;;1.50;99.90;;;;;;4350885;28;658223;-63
2021/01/04 05:25:50;;;;;;;37.28;16.55;;;1.40;99.90;;;;;;4323115;28;657165;-62
2021/01/04 05:29:07;;;;;;;41.73;17.73;;;1.30;99.90;;;;;;4324191;28;657708;-62
2021/01/04 05:32:10;;;;;;;31.77;14.38;;;1.30;99.90;;;;;;4261825;29;658754;-63
2021/01/04 05:34:59;;;;;;;31.87;14.83;;;1.20;99.90;;;;;;4280811;29;657461;-62
2021/01/04 05:37:51;;;;;;;36.97;14.23;;;1.20;99.90;;;;;;4316411;28;659035;-62
2021/01/04 05:41:12;;;;;;;33.60;15.97;;;1.30;99.90;;;;;;4313707;28;657575;-62
2021/01/04 05:44:09;;;;;;;32.30;14.70;;;1.30;99.90;;;;;;4302278;28;657646;-62
2021/01/04 05:46:59;;;;;;;31.07;13.70;;;1.30;99.90;;;;;;4299611;28;658879;-62
2021/01/04 05:49:48;;;;;;;27.87;11.77;;;1.30;99.90;;;;;;4315984;28;658374;-62
2021/01/04 05:52:35;;;;;;;24.57;11.33;;;1.30;99.90;;;;;;4325908;28;658167;-62
2021/01/04 05:55:22;;;;;;;25.73;11.60;;;1.30;99.90;;;;;;4340374;28;658631;-62
2021/01/04 05:58:14;;;;;;;26.63;11.70;;;1.20;99.90;;;;;;4328179;28;657855;-63
2021/01/04 06:01:09;;;;;;;31.85;11.07;;;1.30;99.90;;;;;;4316377;28;659074;-62
2021/01/04 06:03:58;;;;;;;33.87;11.17;;;1.20;99.90;;;;;;4298355;28;657746;-63
2021/01/04 06:06:57;;;;;;;84.10;20.60;;;1.20;99.90;;;;;;4322784;28;658749;-62
2021/01/04 06:09:54;;;;;;;113.00;26.53;;;1.20;99.90;;;;;;4300512;28;657955;-63
2021/01/04 06:12:44;;;;;;;43.07;14.10;;;1.10;99.90;;;;;;4383277;28;659314;-62
2021/01/04 06:15:32;;;;;;;34.30;13.53;;;1.10;99.90;;;;;;4394232;28;658813;-62
2021/01/04 06:18:24;;;;;;;48.23;16.03;;;1.00;99.90;;;;;;4389221;28;657787;-63
2021/01/04 06:21:36;;;;;;;40.42;14.77;;;1.00;99.90;;;;;;4392090;28;658190;-62
2021/01/04 06:24:25;;;;;;;31.33;12.80;;;0.90;99.90;;;;;;4394148;28;657705;-63
2021/01/04 06:27:15;;;;;;;41.93;15.77;;;0.90;99.90;;;;;;4388205;28;657864;-62
2021/01/04 06:30:18;;;;;;;36.77;15.43;;;0.80;99.90;;;;;;4394123;28;658344;-62
2021/01/04 06:33:07;;;;;;;40.00;17.13;;;0.80;99.90;;;;;;4366953;28;658249;-64
2021/01/04 06:36:00;;;;;;;45.70;19.87;;;0.80;99.90;;;;;;4397962;28;657626;-63
2021/01/04 06:38:47;;;;;;;44.53;18.43;;;0.60;99.90;;;;;;4386424;28;657687;-63
2021/01/04 06:41:34;;;;;;;40.63;17.67;;;0.60;99.90;;;;;;4390818;28;658670;-63
2021/01/04 06:44:23;;;;;;;33.67;15.27;;;0.60;99.90;;;;;;4418052;28;660002;-63
2021/01/04 06:47:19;;;;;;;30.17;14.10;;;0.50;99.90;;;;;;4391058;28;657524;-63
2021/01/04 06:50:10;;;;;;;25.27;13.33;;;0.50;99.90;;;;;;4391348;28;657444;-63
2021/01/04 06:53:39;;;;;;;35.70;14.03;;;0.60;99.90;;;;;;4391396;28;658761;-63
2021/01/04 06:57:05;;;;;;;26.70;12.70;;;0.80;99.90;;;;;;4392577;28;658484;-63
2021/01/04 07:00:09;;;;;;;29.27;13.27;;;0.80;99.90;;;;;;4384200;28;657872;-63
2021/01/04 07:03:10;;;;;;;33.17;14.05;;;0.80;99.90;;;;;;4393354;28;658471;-63
2021/01/04 07:06:43;;;;;;;45.93;19.73;;;0.80;99.90;;;;;;4389602;28;657375;-63
2021/01/04 07:09:50;;;;;;;56.80;24.40;;;0.90;99.90;;;;;;4292974;28;659392;-63
2021/01/04 07:12:49;;;;;;;55.37;24.77;;;1.00;99.90;;;;;;4317011;28;657690;-63
2021/01/04 07:15:36;;;;;;;40.93;19.27;;;1.10;99.90;;;;;;4300290;28;657719;-63
2021/01/04 07:18:36;;;;;;;37.10;17.00;;;1.20;99.90;;;;;;4341520;28;657394;-63
2021/01/04 07:21:29;;;;;;;55.03;24.45;;;1.20;99.90;;;;;;4318895;28;657330;-64
2021/01/04 07:24:28;;;;;;;66.63;26.87;;;1.10;99.90;;;;;;4323999;28;658376;-63
2021/01/04 07:27:22;;;;;;;55.33;25.00;;;1.20;99.90;;;;;;4300502;28;658814;-64
2021/01/04 07:30:21;;;;;;;39.57;18.73;;;1.30;99.90;;;;;;4322919;28;657902;-63
2021/01/04 07:33:13;;;;;;;45.40;19.97;;;1.40;99.90;;;;;;4324145;28;657534;-64
2021/01/04 07:36:06;;;;;;;48.73;21.03;;;1.40;99.90;;;;;;4320494;28;657667;-63
2021/01/04 07:39:00;;;;;;;49.70;22.00;;;1.40;99.90;;;;;;4322988;28;657448;-63
2021/01/04 07:41:53;;;;;;;53.45;22.65;;;1.50;99.90;;;;;;4318666;28;657781;-63
2021/01/04 07:45:04;;;;;;;77.90;34.53;;;1.60;99.90;;;;;;4322020;28;658552;-63
2021/01/04 07:48:24;;;;;;;81.87;37.13;;;1.80;99.90;;;;;;4344909;28;658051;-63
2021/01/04 07:51:38;;;;;;;82.63;37.03;;;1.80;99.90;;;;;;4363946;28;657823;-64
2021/01/04 07:54:39;;;;;;;84.87;37.83;;;1.70;99.90;;;;;;4379329;28;658097;-63
2021/01/04 07:57:49;;;;;;;85.50;38.00;;;1.80;99.90;;;;;;4361914;28;658614;-63
2021/01/04 08:00:51;;;;;;;78.67;31.53;;;1.80;99.90;;;;;;4379892;28;657673;-64
2021/01/04 08:03:58;;;;;;;60.33;25.20;;;1.90;99.90;;;;;;4387716;28;657674;-63
2021/01/04 08:07:17;;;;;;;64.13;27.07;;;2.10;99.90;;;;;;4369290;28;657978;-64
2021/01/04 08:10:26;;;;;;;71.30;28.03;;;2.20;99.90;;;;;;4371561;28;658099;-64
2021/01/04 08:13:58;;;;;;;66.70;28.60;;;2.30;99.90;;;;;;4387102;28;658182;-63
2021/01/04 08:16:46;;;;;;;76.30;31.63;;;2.50;99.90;;;;;;4361043;28;658454;-63
2021/01/04 08:19:36;;;;;;;81.80;33.47;;;2.60;99.90;;;;;;4391483;28;657927;-64
2021/01/04 08:22:51;;;;;;;82.80;35.10;;;2.70;99.90;;;;;;4398199;28;658200;-64
2021/01/04 08:25:52;;;;;;;77.30;31.23;;;2.80;99.90;;;;;;4389600;28;657903;-62
2021/01/04 08:28:42;;;;;;;65.07;28.98;;;2.90;99.90;;;;;;4367207;28;657391;-64
2021/01/04 08:31:40;;;;;;;79.97;32.30;;;3.00;99.90;;;;;;4391848;28;657716;-63
2021/01/04 08:34:38;;;;;;;83.07;34.03;;;3.10;99.90;;;;;;4387963;28;657271;-63
2021/01/04 08:37:33;;;;;;;77.87;33.07;;;3.30;99.90;;;;;;4362566;28;658706;-63
2021/01/04 08:40:26;;;;;;;84.47;33.57;;;3.40;99.90;;;;;;4366236;28;658429;-63
2021/01/04 08:43:14;;;;;;;78.57;31.87;;;3.60;99.90;;;;;;4373322;28;658162;-65
2021/01/04 08:46:15;;;;;;;74.23;31.17;;;3.80;99.90;;;;;;4412445;28;658863;-63
2021/01/04 08:49:16;;;;;;;77.07;30.33;;;4.20;99.90;;;;;;4380832;28;657942;-63
2021/01/04 08:52:15;;;;;;;51.03;22.90;;;5.30;99.90;;;;;;4369500;28;657639;-64
2021/01/04 08:55:02;;;;;;;46.97;19.80;;;6.40;99.90;;;;;;4388885;28;657655;-64
2021/01/04 08:57:49;;;;;;;48.17;19.93;;;7.40;99.90;;;;;;4391788;28;658107;-64
2021/01/04 09:00:36;;;;;;;37.83;15.60;;;7.80;99.90;;;;;;4414004;28;657799;-63
2021/01/04 09:03:23;;;;;;;38.30;16.47;;;8.60;99.90;;;;;;4413443;28;657285;-63
2021/01/04 09:06:12;;;;;;;39.40;16.17;;;9.30;99.90;;;;;;4387977;28;657684;-63
2021/01/04 09:09:09;;;;;;;34.43;15.23;;;9.80;99.90;;;;;;4387201;28;658247;-64
2021/01/04 09:12:01;;;;;;;31.17;14.07;;;10.50;99.90;;;;;;4365715;28;658339;-64
2021/01/04 09:14:50;;;;;;;35.47;14.47;;;10.90;99.90;;;;;;4389856;28;658634;-63
2021/01/04 09:17:44;;;;;;;32.97;14.00;;;11.70;98.70;;;;;;4385106;28;659605;-63
2021/01/04 09:20:40;;;;;;;30.23;14.45;;;12.10;89.20;;;;;;4364925;28;659575;-63
2021/01/04 09:23:30;;;;;;;30.47;15.27;;;12.40;93.30;;;;;;4385070;28;659307;-63
2021/01/04 09:26:27;;;;;;;35.23;16.37;;;12.40;81.50;;;;;;4387109;28;659899;-64
2021/01/04 09:29:21;;;;;;;38.63;18.33;;;12.40;80.70;;;;;;4358896;28;658282;-63
2021/01/04 09:32:09;;;;;;;33.70;15.50;;;12.50;84.00;;;;;;4382150;28;658704;-63
2021/01/04 09:34:56;;;;;;;29.20;13.23;;;12.10;85.80;;;;;;4382945;28;659253;-63
2021/01/04 09:37:44;;;;;;;25.73;11.83;;;12.50;78.60;;;;;;4407819;28;658387;-64
2021/01/04 09:40:31;;;;;;;21.27;9.70;;;12.50;77.40;;;;;;4415817;28;659242;-63
2021/01/04 09:43:21;;;;;;;23.17;10.10;;;13.10;72.90;;;;;;4410709;28;659063;-63
2021/01/04 09:46:13;;;;;;;24.67;11.43;;;13.60;71.80;;;;;;4378083;28;659322;-64
2021/01/04 09:49:03;;;;;;;23.50;10.77;;;14.30;66.70;;;;;;4392576;28;659145;-63
2021/01/04 09:51:52;;;;;;;22.60;11.47;;;14.70;64.20;;;;;;4390357;28;658439;-64
2021/01/04 09:54:42;;;;;;;29.27;14.43;;;14.70;63.00;;;;;;4391367;28;659006;-64
2021/01/04 09:57:31;;;;;;;55.37;24.23;;;14.40;58.60;;;;;;4384840;28;658473;-63
2021/01/04 10:00:21;;;;;;;60.17;31.80;;;13.80;61.40;;;;;;4404672;28;659678;-63
2021/01/04 10:03:11;;;;;;;66.30;33.30;;;13.00;64.10;;;;;;4375565;28;659290;-64
2021/01/04 10:05:59;;;;;;;72.03;33.37;;;11.90;69.70;;;;;;4402810;28;658692;-64
2021/01/04 10:08:46;;;;;;;63.00;30.83;;;10.90;79.70;;;;;;4415126;28;658529;-62
2021/01/04 10:11:33;;;;;;;56.20;27.00;;;10.20;84.70;;;;;;4407165;28;659278;-62
2021/01/04 10:14:20;;;;;;;44.23;20.23;;;9.20;87.40;;;;;;4393623;28;658668;-62
2021/01/04 10:17:08;;;;;;;46.90;21.57;;;8.80;87.00;;;;;;4402102;28;658383;-61
2021/01/04 10:19:56;;;;;;;45.97;21.43;;;8.30;85.20;;;;;;4393691;28;657471;-63
2021/01/04 10:22:45;;;;;;;45.43;21.17;;;8.00;87.50;;;;;;4405874;28;658278;-63
2021/01/04 10:25:36;;;;;;;56.90;25.90;;;7.70;87.50;;;;;;4407106;28;657225;-62
2021/01/04 10:28:23;;;;;;;70.40;31.67;;;7.40;91.10;;;;;;4389258;28;657994;-61
2021/01/04 10:31:17;;;;;;;78.40;32.30;;;7.10;94.20;;;;;;4383713;28;658603;-62
2021/01/04 10:34:07;;;;;;;71.73;32.37;;;7.10;95.60;;;;;;4369437;28;658018;-62
2021/01/04 10:36:57;;;;;;;90.43;38.00;;;7.00;99.90;;;;;;4390651;28;658500;-63
2021/01/04 10:39:44;;;;;;;84.93;36.63;;;6.90;99.90;;;;;;4385613;28;659552;-62
2021/01/04 10:42:32;;;;;;;79.93;34.77;;;6.80;99.90;;;;;;4408449;28;659160;-62
2021/01/04 10:45:20;;;;;;;67.90;27.13;;;6.80;99.90;;;;;;4390396;28;657221;-63
2021/01/04 10:48:12;;;;;;;76.77;26.60;;;6.90;99.90;;;;;;4407207;28;658331;-61
2021/01/04 10:51:02;;;;;;;57.63;24.63;;;7.00;99.90;;;;;;4364170;28;658451;-62
2021/01/04 10:53:49;;;;;;;53.17;23.33;;;7.10;99.90;;;;;;4395878;28;657498;-63
2021/01/04 10:56:44;;;;;;;57.63;23.70;;;7.20;99.90;;;;;;4415323;28;658120;-61
2021/01/04 10:59:37;;;;;;;53.47;22.83;;;7.30;99.90;;;;;;4387619;28;658249;-62
2021/01/04 11:02:24;;;;;;;52.57;22.80;;;7.30;99.00;;;;;;4369507;28;657439;-62
2021/01/04 11:05:11;;;;;;;49.83;22.30;;;7.40;99.90;;;;;;4405024;28;658817;-62
2021/01/04 11:08:09;;;;;;;93.40;33.25;;;7.50;99.90;;;;;;4399877;28;657514;-63
2021/01/04 11:10:59;;;;;;;142.83;51.67;;;7.60;96.10;;;;;;4363377;28;658392;-62
2021/01/04 11:13:46;;;;;;;105.03;41.30;;;7.70;96.10;;;;;;4390607;28;659903;-62
2021/01/04 11:16:40;;;;;;;87.30;36.40;;;7.60;98.20;;;;;;4407480;28;658617;-61
2021/01/04 11:19:28;;;;;;;76.50;33.70;;;7.70;99.90;;;;;;4377512;28;657282;-63
2021/01/04 11:22:21;;;;;;;69.67;31.00;;;7.80;99.90;;;;;;4395353;28;657525;-61
2021/01/04 11:25:10;;;;;;;63.65;31.23;;;7.70;99.90;;;;;;4382025;28;658180;-62
2021/01/04 11:27:57;;;;;;;82.47;37.90;;;7.80;97.90;;;;;;4381530;28;658303;-62
2021/01/04 11:30:44;;;;;;;78.67;34.40;;;8.40;96.10;;;;;;4390812;28;657626;-61
2021/01/04 11:33:31;;;;;;;75.07;34.27;;;8.80;93.50;;;;;;4412220;28;658624;-61
2021/01/04 11:36:19;;;;;;;74.23;32.00;;;8.90;91.90;;;;;;4407859;28;657542;-63
2021/01/04 11:39:06;;;;;;;63.90;29.90;;;8.80;90.40;;;;;;4411700;28;659234;-62
2021/01/04 11:41:55;;;;;;;63.60;29.37;;;8.70;91.00;;;;;;4408218;28;659457;-63
2021/01/04 11:44:42;;;;;;;81.40;37.37;;;8.80;87.80;;;;;;4413297;28;658853;-62
2021/01/04 11:47:29;;;;;;;68.73;29.83;;;9.20;89.70;;;;;;4393802;28;657554;-62
2021/01/04 11:50:18;;;;;;;69.90;30.77;;;9.50;85.10;;;;;;4416098;28;659077;-62
2021/01/04 11:53:05;;;;;;;60.97;27.83;;;9.60;84.50;;;;;;4388926;28;658596;-62
2021/01/04 11:55:52;;;;;;;63.70;28.65;;;10.20;81.20;;;;;;4414648;28;659736;-62
2021/01/04 11:58:40;;;;;;;62.10;28.43;;;11.00;79.40;;;;;;4392369;28;658678;-63
2021/01/04 12:01:27;;;;;;;62.53;27.73;;;11.80;74.70;;;;;;4412267;28;659983;-63
2021/01/04 12:04:14;;;;;;;62.57;30.30;;;13.10;70.50;;;;;;4392191;28;658697;-63
2021/01/04 12:07:01;;;;;;;68.60;30.73;;;14.60;63.60;;;;;;4414942;28;658690;-63
2021/01/04 12:09:47;;;;;;;59.67;29.63;;;16.10;59.50;;;;;;4402896;28;659286;-63
2021/01/04 12:12:35;;;;;;;51.87;27.10;;;16.90;56.20;;;;;;4387914;28;658487;-63
2021/01/04 12:15:23;;;;;;;46.60;24.77;;;17.70;54.20;;;;;;4413788;28;659821;-63
2021/01/04 12:18:11;;;;;;;44.93;23.43;;;18.30;51.30;;;;;;4377986;28;660176;-62
2021/01/04 12:20:58;;;;;;;38.33;21.57;;;18.50;51.00;;;;;;4408855;28;658457;-62
2021/01/04 12:23:45;;;;;;;45.53;23.15;;;17.80;49.70;;;;;;4385800;28;658676;-62
2021/01/04 12:26:32;;;;;;;40.50;22.30;;;16.30;52.20;;;;;;4401414;28;660659;-62
2021/01/04 12:29:19;;;;;;;43.23;23.73;;;15.20;54.10;;;;;;4394673;28;659246;-63
2021/01/04 12:32:07;;;;;;;42.30;22.37;;;14.10;56.50;;;;;;4416197;28;659310;-62
2021/01/04 12:34:54;;;;;;;44.87;23.60;;;12.80;59.40;;;;;;4394486;28;658705;-61
2021/01/04 12:37:41;;;;;;;44.50;24.07;;;11.60;62.80;;;;;;4412917;28;660391;-61
2021/01/04 12:40:31;;;;;;;50.27;24.20;;;10.80;66.50;;;;;;4402063;28;658601;-62
2021/01/04 12:43:19;;;;;;;46.73;22.90;;;10.20;69.90;;;;;;4398277;28;659629;-63
2021/01/04 12:46:05;;;;;;;53.63;25.43;;;9.80;73.00;;;;;;4410845;28;659964;-61
2021/01/04 12:48:53;;;;;;;54.30;25.23;;;9.40;75.30;;;;;;4412548;28;658281;-62
2021/01/04 12:51:45;;;;;;;54.97;25.20;;;9.10;77.60;;;;;;4389160;28;660076;-61
2021/01/04 12:54:32;;;;;;;47.53;24.20;;;9.20;79.60;;;;;;4378647;28;658288;-62
2021/01/04 12:57:19;;;;;;;55.60;25.83;;;9.00;80.70;;;;;;4394253;28;657814;-63
2021/01/04 13:00:07;;;;;;;54.30;26.50;;;8.90;84.00;;;;;;4407864;28;658369;-61
2021/01/04 13:02:54;;;;;;;58.23;27.30;;;9.10;86.60;;;;;;4388481;28;657478;-62
2021/01/04 13:05:42;;;;;;;55.77;26.67;;;9.50;83.10;;;;;;4416294;28;659109;-61
2021/01/04 13:08:29;;;;;;;46.40;22.90;;;9.60;82.10;;;;;;4395206;28;657773;-62
2021/01/04 13:11:16;;;;;;;42.30;20.23;;;10.50;79.50;;;;;;4418498;28;658534;-62
2021/01/04 13:14:04;;;;;;;40.70;19.93;;;12.00;75.90;;;;;;4388707;28;658861;-63
2021/01/04 13:16:51;;;;;;;43.40;20.40;;;14.10;68.40;;;;;;4413138;28;658536;-62
2021/01/04 13:19:38;;;;;;;43.33;19.37;;;14.80;61.10;;;;;;4409657;28;658614;-63
2021/01/04 13:22:26;;;;;;;37.40;19.87;;;15.00;57.90;;;;;;4385767;28;658477;-62
2021/01/04 13:25:13;;;;;;;45.73;20.70;;;14.60;58.40;;;;;;4407301;28;658103;-62
2021/01/04 13:28:00;;;;;;;36.57;19.83;;;14.90;57.80;;;;;;4393587;28;659016;-63
2021/01/04 13:30:47;;;;;;;44.20;20.63;;;14.80;57.40;;;;;;4403125;28;660118;-62
2021/01/04 13:33:34;;;;;;;43.90;20.30;;;14.60;58.90;;;;;;4379998;28;658517;-63
2021/01/04 13:36:21;;;;;;;45.07;20.37;;;15.70;58.90;;;;;;4413797;28;658534;-62
2021/01/04 13:39:09;;;;;;;33.58;17.17;;;16.40;55.00;;;;;;4406500;28;659961;-61
2021/01/04 13:41:58;;;;;;;37.97;19.27;;;16.80;54.00;;;;;;4390990;28;659140;-62
2021/01/04 13:44:45;;;;;;;32.47;16.87;;;17.10;53.50;;;;;;4389230;28;660202;-62
2021/01/04 13:47:32;;;;;;;34.37;17.80;;;16.90;52.60;;;;;;4410663;28;659039;-61
2021/01/04 13:50:19;;;;;;;34.90;18.93;;;16.90;52.70;;;;;;4387822;28;658761;-62
2021/01/04 13:53:06;;;;;;;35.13;18.60;;;16.70;53.30;;;;;;4400333;28;660478;-62
2021/01/04 13:55:57;;;;;;;32.83;17.60;;;16.70;52.80;;;;;;4394791;28;660662;-62
2021/01/04 13:58:44;;;;;;;29.57;16.53;;;16.70;51.70;;;;;;4393720;28;659877;-62
2021/01/04 14:01:31;;;;;;;29.37;16.90;;;16.30;51.60;;;;;;4415799;28;659188;-61
2021/01/04 14:04:19;;;;;;;41.30;20.27;;;15.50;53.10;;;;;;4406594;28;658614;-63
2021/01/04 14:07:06;;;;;;;73.57;34.43;;;15.30;54.00;;;;;;4410861;28;658524;-61
2021/01/04 14:09:52;;;;;;;93.50;43.90;;;14.90;55.00;;;;;;4410653;28;658729;-61
2021/01/04 14:12:40;;;;;;;76.40;38.53;;;14.30;56.30;;;;;;4383650;28;658466;-62
2021/01/04 14:15:28;;;;;;;81.70;41.17;;;13.60;57.80;;;;;;4415705;28;659388;-61
2021/01/04 14:18:15;;;;;;;108.57;50.97;;;13.60;58.10;;;;;;4387334;28;658448;-62
2021/01/04 14:21:03;;;;;;;132.47;57.13;;;13.30;59.60;;;;;;4415001;28;659638;-61
2021/01/04 14:23:50;;;;;;;165.57;66.00;;;13.10;59.80;;;;;;4394404;28;660617;-61
2021/01/04 14:26:37;;;;;;;125.30;51.20;;;12.40;60.10;;;;;;4413160;28;659908;-61
2021/01/04 14:29:25;;;;;;;115.90;46.53;;;11.20;62.30;;;;;;4389888;28;659495;-62
2021/01/04 14:32:12;;;;;;;102.10;45.23;;;10.20;65.70;;;;;;4406250;28;660801;-61
2021/01/04 14:34:59;;;;;;;116.30;52.03;;;9.20;70.30;;;;;;4392065;28;659602;-62